• Join FlightAware (Why Join?)
  • Login
  • US Flag GB Flag 
05:29 EST


 

Airport Tracker/Info


-or-


 

Live Flight TrackerFlight Track Log ✈ UAL4108 ✈ 22-Apr-2013 ✈ KLIT - KIAH

Flight Track Log - Related Links

Times and Time Zones

All times are in EDT time to prevent confusion due to time zone crossing. See the UAL4108 flight status page for this flight to view local times or setup timezone preferences in your user account.

Time Position Orientation Groundspeed Altitude Reporting Facility
EDT Latitude Longitude Course Direction KTS MPH feet Rate Location/Type
20:01 34.7242 -92.2394 193° South 160 184 600  Level Memphis Center
20:01 34.7008 -92.2619 218° Southwest 183 211 2,000 2,700 Climbing Memphis Center
20:02 34.6425 -92.2581 177° South 236 272 4,700 2,520 Climbing Memphis Center
20:03 34.5656 -92.2386 168° South 271 312 8,000 2,700 Climbing Memphis Center
20:04 34.4875 -92.3933 190° South  Level Estimated
20:04 34.4675 -92.2264 174° South 306 352 11,100  Level Memphis Center
20:05 34.3982 -92.3619 164° South  Level FlightAware Approximate
20:05 34.3839 -92.2372 186° South 313 360 12,100  Level Memphis Center
20:06 34.3181 -92.4191 193° South  Level Estimated
20:06 34.2814 -92.2575 189° South 349 402 13,800  Level Memphis Center
20:07 34.1767 -92.2778 189° South 377 434 15,600 1,740 Climbing Memphis Center
20:08 34.0681 -92.3006 190° South 395 455 17,300 1,560 Climbing Memphis Center
20:09 33.9650 -92.3383 197° South 400 460 18,800 1,500 Climbing Memphis Center
20:10 33.9361 -92.4503 253° West 326 375 20,300 1,500 Climbing Memphis Center
20:11 33.9089 -92.5797 256° West 331 381 21,900 1,620 Climbing Memphis Center
20:12 33.9406 -92.6756 292° West 331 381 23,600 1,560 Climbing Memphis Center
20:13 34.0311 -92.6306 22° Northeast 247 284 25,100 1,260 Climbing Memphis Center
20:16 33.8656 -92.4233 134° Southeast 457 526 28,000 840 Climbing Fort Worth Center
20:17 33.7403 -92.4231 180° South 496 571 28,000  Level Fort Worth Center
20:18 33.6108 -92.4206 179° South 472 543 28,000  Level Fort Worth Center
20:19 33.4750 -92.4183 179° South 472 543 28,000  Level Fort Worth Center
20:20 33.3419 -92.4283 184° South 483 556 28,000  Level Fort Worth Center
20:21 33.2136 -92.4528 189° South 477 549 28,000  Level Fort Worth Center
20:22 33.0789 -92.4778 189° South 482 555 28,000  Level Fort Worth Center
20:23 32.9442 -92.5000 188° South 482 555 28,000  Level Fort Worth Center
20:24 32.8383 -92.5206 189° South 482 555 28,000  Level Fort Worth Center
20:25 32.6919 -92.5089 176° South 477 549 28,000  Level Fort Worth Center
20:27 32.4225 -92.5233 183° South 474 545 28,000  Level Houston Center
20:28 32.2978 -92.5675 197° South 467 537 28,000  Level Houston Center
20:29 32.1736 -92.6094 196° South 465 535 28,000  Level Houston Center
20:30 32.0489 -92.6531 197° South 469 540 28,000  Level Houston Center
20:31 31.9342 -92.7156 205° Southwest 458 527 28,000  Level Houston Center
20:32 31.8197 -92.8261 219° Southwest 447 514 28,000  Level Houston Center
20:33 31.7253 -92.9183 220° Southwest 444 511 28,000  Level Houston Center
20:34 31.6300 -93.0094 219° Southwest 443 510 28,000  Level Houston Center
20:35 31.5422 -93.0925 219° Southwest 412 474 28,000  Level Houston Center
20:36 31.4544 -93.1769 219° Southwest 408 470 28,000  Level Houston Center
20:37 31.3667 -93.2625 220° Southwest 411 473 28,000  Level Houston Center
20:38 31.2739 -93.3500 219° Southwest 412 474 28,000  Level Houston Center
20:39 31.1711 -93.4475 219° Southwest 413 475 28,000  Level Houston Center
20:40 31.0825 -93.5317 219° Southwest 412 474 28,000  Level Houston Center
20:41 30.9942 -93.6172 220° Southwest 414 476 28,000  Level Houston Center
20:42 30.9044 -93.7014 219° Southwest 416 479 28,000 -600 Level Houston Center
20:43 30.8147 -93.7856 219° Southwest 416 479 26,800 -1,860 Descending Houston Center
20:44 30.7131 -93.8825 219° Southwest 397 457 24,300 -2,220 Descending Houston Center
20:45 30.6306 -93.9608 219° Southwest 389 448 22,300 -1,980 Descending Houston Center
20:46 30.5478 -94.0369 218° Southwest 384 442 20,300 -2,100 Descending Houston Center
20:47 30.4906 -94.0906 219° Southwest 375 432 18,900 -1,980 Descending Houston Center
20:47 30.4692 -94.1117 220° Southwest 373 429 18,300 -1,740 Descending Houston Center
20:48 30.4289 -94.1475 217° Southwest 362 417 17,500 -1,680 Descending Houston Center
20:48 30.3917 -94.1831 219° Southwest 361 415 16,600 -1,980 Descending Houston Center
20:49 30.3483 -94.2236 219° Southwest 353 406 15,500 -2,040 Descending Houston Center
20:49 30.3261 -94.2667 239° Southwest 363 418 14,500 -1,980 Descending Houston Center
20:50 30.3056 -94.3236 247° West 365 420 13,500 -2,040 Descending Houston Center
20:50 30.2825 -94.3936 249° West 356 410 12,400 -1,740 Descending Houston Center
20:51 30.2650 -94.4428 248° West 351 404 11,600 -1,380 Descending Houston Center
20:51 30.2464 -94.4942 247° West 353 406 11,000 -1,500 Descending Houston Center
20:52 30.2272 -94.5519 249° West 353 406 10,100 -900 Descending Houston Center
20:53 30.2117 -94.5992 249° West 353 406 10,100 -120 Level Houston Center
20:53 30.1894 -94.6608 247° West 351 404 10,000  Descending Houston Center
20:54 30.1742 -94.7025 247° West 350 403 10,100  Climbing Houston Center
20:54 30.1511 -94.7647 247° West 350 403 10,000  Descending Houston Center
20:55 30.1389 -94.8067 251° West 349 402 10,100  Climbing Houston Center
20:55 30.1169 -94.8681 248° West 348 400 10,000 -120 Descending Houston Center
20:56 30.1086 -94.9039 255° West 321 369 10,000 -1,140 Level Houston Center
20:56 30.1061 -94.9542 267° West 265 305 8,900 -2,040 Descending Houston Center
20:57 30.1058 -95.0058 270° West 269 310 7,900 -1,980 Descending Houston Center
20:57 30.1058 -95.0411 270° West 260 299 6,900 -1,500 Descending Houston Center
20:58 30.1069 -95.0914 271° West 269 310 6,400 -900 Descending Houston Center
20:58 30.1064 -95.1353 269° West 272 313 6,000 -300 Descending Houston Center
20:59 30.1061 -95.1786 270° West 272 313 6,100  Climbing Houston Center
20:59 30.1075 -95.2147 273° West 272 313 6,000  Descending Houston Center
21:00 30.1067 -95.2642 269° West 268 308 6,100  Climbing Houston Center
21:00 30.1069 -95.3019 270° West 270 311 6,000  Descending Houston Center
21:01 30.1075 -95.3511 271° West 271 312 6,100 -360 Climbing Houston Center
21:01 30.1075 -95.3983 270° West 264 304 5,600 -1,680 Descending Houston Center
21:02 30.1072 -95.4319 269° West 255 293 4,400 -2,280 Descending Houston Center
21:02 30.1061 -95.4758 268° West 237 273 3,300 -1,380 Descending Houston Center
21:03 30.1078 -95.5233 272° West 244 281 3,000 -300 Descending Houston Center
21:03 30.1064 -95.5483 266° West 224 258 3,000 -120 Level Houston Center
21:04 30.1061 -95.5947 270° West 234 269 2,900  Descending Houston Center
21:04 30.0822 -95.6067 203° Southwest 188 216 3,000 60 Climbing Houston Center
21:05 30.0589 -95.6036 174° South 202 232 3,000  Level Houston Center
21:05 30.0472 -95.5914 138° Southeast 172 198 3,000  Level Houston Center
21:06 30.0278 -95.5406 114° Southeast 171 197 3,000  Level Houston Center